sensor_id;sensor_type;location;lat;lon;timestamp;P1;durP1;ratioP1;P2;durP2;ratioP2
31674;SDS011;18276;45.520;11.018;2022-07-15T00:00:31;9.23;;;4.40;;
31674;SDS011;18276;45.520;11.018;2022-07-15T00:02:59;6.25;;;4.25;;
31674;SDS011;18276;45.520;11.018;2022-07-15T00:05:26;9.30;;;4.18;;
31674;SDS011;18276;45.520;11.018;2022-07-15T00:07:53;8.48;;;4.63;;
31674;SDS011;18276;45.520;11.018;2022-07-15T00:10:21;11.35;;;4.40;;
31674;SDS011;18276;45.520;11.018;2022-07-15T00:12:51;5.53;;;4.20;;
31674;SDS011;18276;45.520;11.018;2022-07-15T00:15:20;13.13;;;4.45;;
31674;SDS011;18276;45.520;11.018;2022-07-15T00:17:52;13.25;;;4.55;;
31674;SDS011;18276;45.520;11.018;2022-07-15T00:20:20;8.73;;;4.05;;
31674;SDS011;18276;45.520;11.018;2022-07-15T00:22:48;13.52;;;3.97;;
31674;SDS011;18276;45.520;11.018;2022-07-15T00:25:16;9.18;;;4.65;;
31674;SDS011;18276;45.520;11.018;2022-07-15T00:27:50;14.20;;;4.20;;
31674;SDS011;18276;45.520;11.018;2022-07-15T00:30:30;5.50;;;4.43;;
31674;SDS011;18276;45.520;11.018;2022-07-15T00:32:58;11.30;;;4.00;;
31674;SDS011;18276;45.520;11.018;2022-07-15T00:35:27;9.52;;;4.38;;
31674;SDS011;18276;45.520;11.018;2022-07-15T00:37:55;4.20;;;3.70;;
31674;SDS011;18276;45.520;11.018;2022-07-15T00:40:22;7.47;;;4.40;;
31674;SDS011;18276;45.520;11.018;2022-07-15T00:42:49;8.32;;;4.20;;
31674;SDS011;18276;45.520;11.018;2022-07-15T00:45:17;4.35;;;3.92;;
31674;SDS011;18276;45.520;11.018;2022-07-15T00:47:53;8.68;;;4.70;;
31674;SDS011;18276;45.520;11.018;2022-07-15T00:50:22;5.95;;;3.90;;
31674;SDS011;18276;45.520;11.018;2022-07-15T00:53:10;7.53;;;4.45;;
31674;SDS011;18276;45.520;11.018;2022-07-15T00:55:43;7.00;;;4.43;;
31674;SDS011;18276;45.520;11.018;2022-07-15T00:58:18;6.97;;;4.60;;
31674;SDS011;18276;45.520;11.018;2022-07-15T01:00:50;7.93;;;3.70;;
31674;SDS011;18276;45.520;11.018;2022-07-15T01:03:18;7.03;;;4.30;;
31674;SDS011;18276;45.520;11.018;2022-07-15T01:05:46;4.80;;;4.30;;
31674;SDS011;18276;45.520;11.018;2022-07-15T01:08:15;10.65;;;4.38;;
31674;SDS011;18276;45.520;11.018;2022-07-15T01:10:46;6.75;;;3.70;;
31674;SDS011;18276;45.520;11.018;2022-07-15T01:13:15;11.57;;;4.28;;
31674;SDS011;18276;45.520;11.018;2022-07-15T01:15:45;5.25;;;4.10;;
31674;SDS011;18276;45.520;11.018;2022-07-15T01:18:12;5.60;;;4.20;;
31674;SDS011;18276;45.520;11.018;2022-07-15T01:20:42;7.68;;;4.03;;
31674;SDS011;18276;45.520;11.018;2022-07-15T01:23:10;6.88;;;4.22;;
31674;SDS011;18276;45.520;11.018;2022-07-15T01:26:06;6.93;;;4.00;;
31674;SDS011;18276;45.520;11.018;2022-07-15T01:28:34;8.98;;;4.32;;
31674;SDS011;18276;45.520;11.018;2022-07-15T01:31:04;7.38;;;4.65;;
31674;SDS011;18276;45.520;11.018;2022-07-15T01:33:34;8.50;;;4.22;;
31674;SDS011;18276;45.520;11.018;2022-07-15T01:36:02;6.03;;;4.00;;
31674;SDS011;18276;45.520;11.018;2022-07-15T01:38:31;6.78;;;4.45;;
31674;SDS011;18276;45.520;11.018;2022-07-15T01:41:09;7.43;;;4.13;;
31674;SDS011;18276;45.520;11.018;2022-07-15T01:43:37;5.80;;;4.00;;
31674;SDS011;18276;45.520;11.018;2022-07-15T01:46:04;5.20;;;4.18;;
31674;SDS011;18276;45.520;11.018;2022-07-15T01:48:35;5.43;;;4.65;;
31674;SDS011;18276;45.520;11.018;2022-07-15T01:51:44;6.45;;;4.90;;
31674;SDS011;18276;45.520;11.018;2022-07-15T01:54:11;8.75;;;4.18;;
31674;SDS011;18276;45.520;11.018;2022-07-15T01:56:40;11.13;;;5.07;;
31674;SDS011;18276;45.520;11.018;2022-07-15T01:59:08;8.20;;;4.78;;
31674;SDS011;18276;45.520;11.018;2022-07-15T02:01:35;9.38;;;4.68;;
31674;SDS011;18276;45.520;11.018;2022-07-15T02:04:08;7.22;;;4.43;;
31674;SDS011;18276;45.520;11.018;2022-07-15T02:06:35;6.78;;;5.07;;
31674;SDS011;18276;45.520;11.018;2022-07-15T02:09:03;10.65;;;5.28;;
31674;SDS011;18276;45.520;11.018;2022-07-15T02:11:35;8.20;;;4.55;;
31674;SDS011;18276;45.520;11.018;2022-07-15T02:14:03;8.95;;;4.93;;
31674;SDS011;18276;45.520;11.018;2022-07-15T02:16:32;8.00;;;4.60;;
31674;SDS011;18276;45.520;11.018;2022-07-15T02:19:04;10.03;;;4.70;;
31674;SDS011;18276;45.520;11.018;2022-07-15T02:21:31;7.28;;;5.15;;
31674;SDS011;18276;45.520;11.018;2022-07-15T02:23:59;10.32;;;4.43;;
31674;SDS011;18276;45.520;11.018;2022-07-15T02:26:26;15.77;;;4.85;;
31674;SDS011;18276;45.520;11.018;2022-07-15T02:28:55;7.43;;;4.78;;
31674;SDS011;18276;45.520;11.018;2022-07-15T02:31:25;7.75;;;4.68;;
31674;SDS011;18276;45.520;11.018;2022-07-15T02:33:54;12.63;;;4.72;;
31674;SDS011;18276;45.520;11.018;2022-07-15T02:36:25;14.68;;;5.13;;
31674;SDS011;18276;45.520;11.018;2022-07-15T02:38:53;6.35;;;4.65;;
31674;SDS011;18276;45.520;11.018;2022-07-15T02:41:22;7.50;;;4.50;;
31674;SDS011;18276;45.520;11.018;2022-07-15T02:43:50;7.25;;;5.18;;
31674;SDS011;18276;45.520;11.018;2022-07-15T02:46:17;11.00;;;5.45;;
31674;SDS011;18276;45.520;11.018;2022-07-15T02:48:45;8.10;;;5.22;;
31674;SDS011;18276;45.520;11.018;2022-07-15T02:51:13;11.00;;;5.40;;
31674;SDS011;18276;45.520;11.018;2022-07-15T02:53:41;8.40;;;5.25;;
31674;SDS011;18276;45.520;11.018;2022-07-15T02:56:13;7.43;;;6.03;;
31674;SDS011;18276;45.520;11.018;2022-07-15T02:58:40;9.23;;;6.00;;
31674;SDS011;18276;45.520;11.018;2022-07-15T03:01:08;16.85;;;5.80;;
31674;SDS011;18276;45.520;11.018;2022-07-15T03:03:37;12.93;;;6.07;;
31674;SDS011;18276;45.520;11.018;2022-07-15T03:06:08;7.68;;;5.55;;
31674;SDS011;18276;45.520;11.018;2022-07-15T03:08:36;10.23;;;6.25;;
31674;SDS011;18276;45.520;11.018;2022-07-15T03:11:04;8.02;;;5.97;;
31674;SDS011;18276;45.520;11.018;2022-07-15T03:13:31;11.77;;;6.97;;
31674;SDS011;18276;45.520;11.018;2022-07-15T03:15:58;9.65;;;5.30;;
31674;SDS011;18276;45.520;11.018;2022-07-15T03:18:25;10.90;;;6.30;;
31674;SDS011;18276;45.520;11.018;2022-07-15T03:20:52;12.07;;;6.18;;
31674;SDS011;18276;45.520;11.018;2022-07-15T03:23:20;10.23;;;6.15;;
31674;SDS011;18276;45.520;11.018;2022-07-15T03:25:50;10.10;;;6.35;;
31674;SDS011;18276;45.520;11.018;2022-07-15T03:28:18;10.27;;;5.97;;
31674;SDS011;18276;45.520;11.018;2022-07-15T03:30:47;11.98;;;6.43;;
31674;SDS011;18276;45.520;11.018;2022-07-15T03:33:15;7.13;;;6.25;;
31674;SDS011;18276;45.520;11.018;2022-07-15T03:35:42;11.63;;;6.43;;
31674;SDS011;18276;45.520;11.018;2022-07-15T03:38:10;11.90;;;6.35;;
31674;SDS011;18276;45.520;11.018;2022-07-15T03:40:38;11.40;;;6.55;;
31674;SDS011;18276;45.520;11.018;2022-07-15T03:43:05;11.43;;;6.82;;
31674;SDS011;18276;45.520;11.018;2022-07-15T03:45:34;13.68;;;7.68;;
31674;SDS011;18276;45.520;11.018;2022-07-15T03:48:01;9.77;;;6.30;;
31674;SDS011;18276;45.520;11.018;2022-07-15T03:50:32;11.52;;;7.40;;
31674;SDS011;18276;45.520;11.018;2022-07-15T03:53:00;12.60;;;6.70;;
31674;SDS011;18276;45.520;11.018;2022-07-15T03:55:27;13.55;;;7.28;;
31674;SDS011;18276;45.520;11.018;2022-07-15T03:57:56;9.23;;;6.22;;
31674;SDS011;18276;45.520;11.018;2022-07-15T04:00:24;7.25;;;6.53;;
31674;SDS011;18276;45.520;11.018;2022-07-15T04:02:51;7.80;;;6.55;;
31674;SDS011;18276;45.520;11.018;2022-07-15T04:05:18;10.65;;;6.97;;
31674;SDS011;18276;45.520;11.018;2022-07-15T04:07:45;10.70;;;6.88;;
31674;SDS011;18276;45.520;11.018;2022-07-15T04:10:12;13.18;;;7.22;;
31674;SDS011;18276;45.520;11.018;2022-07-15T04:12:41;10.57;;;7.25;;
31674;SDS011;18276;45.520;11.018;2022-07-15T04:15:13;7.63;;;6.72;;
31674;SDS011;18276;45.520;11.018;2022-07-15T04:17:43;7.30;;;6.57;;
31674;SDS011;18276;45.520;11.018;2022-07-15T04:20:10;13.00;;;7.07;;
31674;SDS011;18276;45.520;11.018;2022-07-15T04:22:44;12.23;;;6.88;;
31674;SDS011;18276;45.520;11.018;2022-07-15T04:25:17;10.30;;;7.20;;
31674;SDS011;18276;45.520;11.018;2022-07-15T04:27:46;12.93;;;7.05;;
31674;SDS011;18276;45.520;11.018;2022-07-15T04:30:21;18.52;;;7.32;;
31674;SDS011;18276;45.520;11.018;2022-07-15T04:32:49;24.70;;;13.52;;
31674;SDS011;18276;45.520;11.018;2022-07-15T04:35:19;23.38;;;7.18;;
31674;SDS011;18276;45.520;11.018;2022-07-15T04:37:52;12.45;;;6.80;;
31674;SDS011;18276;45.520;11.018;2022-07-15T04:40:19;13.88;;;6.93;;
31674;SDS011;18276;45.520;11.018;2022-07-15T04:42:47;14.80;;;7.13;;
31674;SDS011;18276;45.520;11.018;2022-07-15T04:45:16;11.85;;;6.75;;
31674;SDS011;18276;45.520;11.018;2022-07-15T04:47:43;19.98;;;6.72;;
31674;SDS011;18276;45.520;11.018;2022-07-15T04:50:16;18.75;;;7.45;;
31674;SDS011;18276;45.520;11.018;2022-07-15T04:53:03;9.00;;;6.90;;
31674;SDS011;18276;45.520;11.018;2022-07-15T04:55:31;20.73;;;7.28;;
31674;SDS011;18276;45.520;11.018;2022-07-15T04:58:02;13.05;;;7.30;;
31674;SDS011;18276;45.520;11.018;2022-07-15T05:00:29;20.25;;;7.43;;
31674;SDS011;18276;45.520;11.018;2022-07-15T05:02:57;22.70;;;7.25;;
31674;SDS011;18276;45.520;11.018;2022-07-15T05:05:26;28.27;;;7.35;;
31674;SDS011;18276;45.520;11.018;2022-07-15T05:07:55;15.02;;;7.15;;
31674;SDS011;18276;45.520;11.018;2022-07-15T05:10:22;23.20;;;7.13;;
31674;SDS011;18276;45.520;11.018;2022-07-15T05:12:56;26.70;;;7.70;;
31674;SDS011;18276;45.520;11.018;2022-07-15T05:15:24;25.40;;;8.25;;
31674;SDS011;18276;45.520;11.018;2022-07-15T05:17:51;18.60;;;7.28;;
31674;SDS011;18276;45.520;11.018;2022-07-15T05:20:20;25.27;;;8.52;;
31674;SDS011;18276;45.520;11.018;2022-07-15T05:22:50;32.70;;;8.18;;
31674;SDS011;18276;45.520;11.018;2022-07-15T05:25:18;28.33;;;7.30;;
31674;SDS011;18276;45.520;11.018;2022-07-15T05:27:45;30.00;;;8.13;;
31674;SDS011;18276;45.520;11.018;2022-07-15T05:30:14;30.63;;;9.18;;
31674;SDS011;18276;45.520;11.018;2022-07-15T05:32:43;25.13;;;8.35;;
31674;SDS011;18276;45.520;11.018;2022-07-15T05:37:44;25.27;;;8.20;;
31674;SDS011;18276;45.520;11.018;2022-07-15T05:40:16;15.93;;;7.30;;
31674;SDS011;18276;45.520;11.018;2022-07-15T05:42:49;15.52;;;6.80;;
31674;SDS011;18276;45.520;11.018;2022-07-15T05:45:17;17.15;;;7.82;;
31674;SDS011;18276;45.520;11.018;2022-07-15T05:47:51;17.40;;;7.15;;
31674;SDS011;18276;45.520;11.018;2022-07-15T05:50:21;19.65;;;7.03;;
31674;SDS011;18276;45.520;11.018;2022-07-15T05:52:48;17.15;;;6.65;;
31674;SDS011;18276;45.520;11.018;2022-07-15T05:55:18;14.68;;;6.70;;
31674;SDS011;18276;45.520;11.018;2022-07-15T05:57:45;17.02;;;7.07;;
31674;SDS011;18276;45.520;11.018;2022-07-15T06:00:13;19.05;;;6.90;;
31674;SDS011;18276;45.520;11.018;2022-07-15T06:02:41;16.65;;;6.65;;
31674;SDS011;18276;45.520;11.018;2022-07-15T06:05:18;18.38;;;6.93;;
31674;SDS011;18276;45.520;11.018;2022-07-15T06:07:50;23.83;;;6.93;;
31674;SDS011;18276;45.520;11.018;2022-07-15T06:10:22;12.70;;;7.47;;
31674;SDS011;18276;45.520;11.018;2022-07-15T06:12:49;20.25;;;6.85;;
31674;SDS011;18276;45.520;11.018;2022-07-15T06:15:20;18.85;;;6.38;;
31674;SDS011;18276;45.520;11.018;2022-07-15T06:17:48;12.57;;;5.78;;
31674;SDS011;18276;45.520;11.018;2022-07-15T06:20:19;16.38;;;5.88;;
31674;SDS011;18276;45.520;11.018;2022-07-15T06:22:46;13.70;;;5.75;;
31674;SDS011;18276;45.520;11.018;2022-07-15T06:25:13;12.75;;;6.45;;
31674;SDS011;18276;45.520;11.018;2022-07-15T06:27:44;14.02;;;6.20;;
31674;SDS011;18276;45.520;11.018;2022-07-15T06:30:11;15.95;;;6.50;;
31674;SDS011;18276;45.520;11.018;2022-07-15T06:32:42;9.30;;;5.50;;
31674;SDS011;18276;45.520;11.018;2022-07-15T06:35:09;11.32;;;4.63;;
31674;SDS011;18276;45.520;11.018;2022-07-15T06:37:36;7.57;;;4.25;;
31674;SDS011;18276;45.520;11.018;2022-07-15T06:40:04;8.55;;;4.00;;
31674;SDS011;18276;45.520;11.018;2022-07-15T06:42:32;8.20;;;4.57;;
31674;SDS011;18276;45.520;11.018;2022-07-15T06:45:03;10.50;;;4.07;;
31674;SDS011;18276;45.520;11.018;2022-07-15T06:47:31;10.85;;;4.07;;
31674;SDS011;18276;45.520;11.018;2022-07-15T06:49:59;9.57;;;4.00;;
31674;SDS011;18276;45.520;11.018;2022-07-15T06:52:27;7.70;;;4.03;;
31674;SDS011;18276;45.520;11.018;2022-07-15T06:54:55;10.93;;;3.88;;
31674;SDS011;18276;45.520;11.018;2022-07-15T06:57:22;11.43;;;3.75;;
31674;SDS011;18276;45.520;11.018;2022-07-15T06:59:52;3.88;;;3.33;;
31674;SDS011;18276;45.520;11.018;2022-07-15T07:02:22;4.40;;;3.30;;
31674;SDS011;18276;45.520;11.018;2022-07-15T07:04:49;10.20;;;3.60;;
31674;SDS011;18276;45.520;11.018;2022-07-15T07:07:16;8.77;;;3.92;;
31674;SDS011;18276;45.520;11.018;2022-07-15T07:09:44;5.35;;;3.40;;
31674;SDS011;18276;45.520;11.018;2022-07-15T07:12:12;7.70;;;3.38;;
31674;SDS011;18276;45.520;11.018;2022-07-15T07:14:39;6.57;;;3.33;;
31674;SDS011;18276;45.520;11.018;2022-07-15T07:17:06;6.72;;;3.20;;
31674;SDS011;18276;45.520;11.018;2022-07-15T07:19:33;10.45;;;3.53;;
31674;SDS011;18276;45.520;11.018;2022-07-15T07:22:00;10.23;;;3.60;;
31674;SDS011;18276;45.520;11.018;2022-07-15T07:24:27;11.93;;;3.08;;
31674;SDS011;18276;45.520;11.018;2022-07-15T07:26:54;5.45;;;3.13;;
31674;SDS011;18276;45.520;11.018;2022-07-15T07:29:21;3.95;;;3.40;;
31674;SDS011;18276;45.520;11.018;2022-07-15T07:31:52;7.88;;;3.65;;
31674;SDS011;18276;45.520;11.018;2022-07-15T07:34:19;5.38;;;3.38;;
31674;SDS011;18276;45.520;11.018;2022-07-15T07:36:46;11.35;;;3.38;;
31674;SDS011;18276;45.520;11.018;2022-07-15T07:39:14;9.90;;;3.30;;
31674;SDS011;18276;45.520;11.018;2022-07-15T07:41:43;8.40;;;3.22;;
31674;SDS011;18276;45.520;11.018;2022-07-15T07:44:10;5.18;;;3.38;;
31674;SDS011;18276;45.520;11.018;2022-07-15T07:46:37;7.68;;;3.50;;
31674;SDS011;18276;45.520;11.018;2022-07-15T07:49:04;5.60;;;3.60;;
31674;SDS011;18276;45.520;11.018;2022-07-15T07:51:51;8.60;;;3.50;;
31674;SDS011;18276;45.520;11.018;2022-07-15T07:54:18;8.70;;;3.47;;
31674;SDS011;18276;45.520;11.018;2022-07-15T07:56:45;6.80;;;3.05;;
31674;SDS011;18276;45.520;11.018;2022-07-15T07:59:12;9.32;;;3.95;;
31674;SDS011;18276;45.520;11.018;2022-07-15T08:01:40;6.78;;;3.50;;
31674;SDS011;18276;45.520;11.018;2022-07-15T08:04:07;5.90;;;3.25;;
31674;SDS011;18276;45.520;11.018;2022-07-15T08:06:34;6.10;;;3.60;;
31674;SDS011;18276;45.520;11.018;2022-07-15T08:09:01;6.57;;;3.63;;
31674;SDS011;18276;45.520;11.018;2022-07-15T08:11:28;4.55;;;3.45;;
31674;SDS011;18276;45.520;11.018;2022-07-15T08:13:55;5.97;;;3.30;;
31674;SDS011;18276;45.520;11.018;2022-07-15T08:16:23;14.50;;;3.88;;
31674;SDS011;18276;45.520;11.018;2022-07-15T08:18:50;6.78;;;4.60;;
31674;SDS011;18276;45.520;11.018;2022-07-15T08:21:19;5.30;;;3.30;;
31674;SDS011;18276;45.520;11.018;2022-07-15T08:23:47;8.45;;;3.80;;
31674;SDS011;18276;45.520;11.018;2022-07-15T08:26:14;7.88;;;3.90;;
31674;SDS011;18276;45.520;11.018;2022-07-15T08:28:45;12.35;;;3.85;;
31674;SDS011;18276;45.520;11.018;2022-07-15T08:31:32;5.57;;;3.80;;
31674;SDS011;18276;45.520;11.018;2022-07-15T08:34:04;4.53;;;3.67;;
31674;SDS011;18276;45.520;11.018;2022-07-15T08:36:34;9.10;;;4.18;;
31674;SDS011;18276;45.520;11.018;2022-07-15T08:39:01;8.07;;;4.43;;
31674;SDS011;18276;45.520;11.018;2022-07-15T08:41:29;10.43;;;4.38;;
31674;SDS011;18276;45.520;11.018;2022-07-15T08:44:00;11.65;;;4.80;;
31674;SDS011;18276;45.520;11.018;2022-07-15T08:46:27;8.05;;;3.78;;
31674;SDS011;18276;45.520;11.018;2022-07-15T08:48:55;13.80;;;4.82;;
31674;SDS011;18276;45.520;11.018;2022-07-15T08:51:32;8.20;;;4.00;;
31674;SDS011;18276;45.520;11.018;2022-07-15T08:54:04;9.65;;;4.07;;
31674;SDS011;18276;45.520;11.018;2022-07-15T08:56:32;12.65;;;4.80;;
31674;SDS011;18276;45.520;11.018;2022-07-15T08:59:04;10.87;;;4.30;;
31674;SDS011;18276;45.520;11.018;2022-07-15T09:01:33;5.50;;;4.15;;
31674;SDS011;18276;45.520;11.018;2022-07-15T09:04:07;6.47;;;4.20;;
31674;SDS011;18276;45.520;11.018;2022-07-15T09:06:38;7.60;;;4.20;;
31674;SDS011;18276;45.520;11.018;2022-07-15T09:09:26;5.80;;;4.47;;
31674;SDS011;18276;45.520;11.018;2022-07-15T09:12:00;10.25;;;4.40;;
31674;SDS011;18276;45.520;11.018;2022-07-15T09:14:40;8.40;;;4.53;;
31674;SDS011;18276;45.520;11.018;2022-07-15T09:22:24;7.03;;;4.60;;
31674;SDS011;18276;45.520;11.018;2022-07-15T09:25:06;10.13;;;5.50;;
31674;SDS011;18276;45.520;11.018;2022-07-15T09:27:37;9.60;;;5.18;;
31674;SDS011;18276;45.520;11.018;2022-07-15T09:30:12;6.63;;;4.90;;
31674;SDS011;18276;45.520;11.018;2022-07-15T09:32:59;7.68;;;4.90;;
31674;SDS011;18276;45.520;11.018;2022-07-15T09:35:45;10.82;;;4.70;;
31674;SDS011;18276;45.520;11.018;2022-07-15T09:40:56;8.48;;;5.45;;
31674;SDS011;18276;45.520;11.018;2022-07-15T09:43:23;7.47;;;4.95;;
31674;SDS011;18276;45.520;11.018;2022-07-15T09:45:57;9.98;;;5.90;;
31674;SDS011;18276;45.520;11.018;2022-07-15T09:48:28;14.70;;;5.47;;
31674;SDS011;18276;45.520;11.018;2022-07-15T09:50:59;8.45;;;4.80;;
31674;SDS011;18276;45.520;11.018;2022-07-15T09:53:27;9.23;;;5.00;;
31674;SDS011;18276;45.520;11.018;2022-07-15T09:55:55;10.63;;;5.28;;
31674;SDS011;18276;45.520;11.018;2022-07-15T09:58:22;9.10;;;5.50;;
31674;SDS011;18276;45.520;11.018;2022-07-15T10:00:51;8.63;;;5.10;;
31674;SDS011;18276;45.520;11.018;2022-07-15T10:03:19;8.75;;;5.28;;
31674;SDS011;18276;45.520;11.018;2022-07-15T10:05:52;13.30;;;5.57;;
31674;SDS011;18276;45.520;11.018;2022-07-15T10:08:22;9.25;;;6.28;;
31674;SDS011;18276;45.520;11.018;2022-07-15T10:10:51;8.35;;;6.20;;
31674;SDS011;18276;45.520;11.018;2022-07-15T10:13:33;7.38;;;5.30;;
31674;SDS011;18276;45.520;11.018;2022-07-15T10:30:13;11.05;;;5.88;;
31674;SDS011;18276;45.520;11.018;2022-07-15T10:35:45;8.57;;;5.78;;
31674;SDS011;18276;45.520;11.018;2022-07-15T10:41:14;8.65;;;5.82;;
31674;SDS011;18276;45.520;11.018;2022-07-15T10:46:22;6.70;;;5.22;;
31674;SDS011;18276;45.520;11.018;2022-07-15T10:54:03;10.20;;;5.63;;
31674;SDS011;18276;45.520;11.018;2022-07-15T10:56:32;7.57;;;5.22;;
31674;SDS011;18276;45.520;11.018;2022-07-15T11:01:35;13.63;;;6.20;;
31674;SDS011;18276;45.520;11.018;2022-07-15T11:04:14;8.75;;;5.63;;
31674;SDS011;18276;45.520;11.018;2022-07-15T11:09:57;6.13;;;5.40;;
31674;SDS011;18276;45.520;11.018;2022-07-15T11:15:08;11.63;;;5.35;;
31674;SDS011;18276;45.520;11.018;2022-07-15T11:17:42;12.93;;;5.50;;
31674;SDS011;18276;45.520;11.018;2022-07-15T11:20:28;9.68;;;5.72;;
31674;SDS011;18276;45.520;11.018;2022-07-15T11:23:00;7.85;;;5.72;;
31674;SDS011;18276;45.520;11.018;2022-07-15T11:25:32;6.32;;;4.97;;
31674;SDS011;18276;45.520;11.018;2022-07-15T11:30:35;10.27;;;7.03;;
31674;SDS011;18276;45.520;11.018;2022-07-15T11:33:03;12.88;;;5.65;;
31674;SDS011;18276;45.520;11.018;2022-07-15T11:35:41;10.80;;;6.03;;
31674;SDS011;18276;45.520;11.018;2022-07-15T11:38:13;9.20;;;6.32;;
31674;SDS011;18276;45.520;11.018;2022-07-15T11:40:42;8.13;;;5.88;;
31674;SDS011;18276;45.520;11.018;2022-07-15T11:43:32;8.23;;;5.32;;
31674;SDS011;18276;45.520;11.018;2022-07-15T11:46:18;9.80;;;5.18;;
31674;SDS011;18276;45.520;11.018;2022-07-15T11:48:46;7.07;;;4.97;;
31674;SDS011;18276;45.520;11.018;2022-07-15T11:51:13;8.43;;;5.18;;
31674;SDS011;18276;45.520;11.018;2022-07-15T11:53:45;7.22;;;4.80;;
31674;SDS011;18276;45.520;11.018;2022-07-15T11:56:14;9.38;;;5.28;;
31674;SDS011;18276;45.520;11.018;2022-07-15T11:58:43;9.52;;;5.15;;
31674;SDS011;18276;45.520;11.018;2022-07-15T12:01:14;5.55;;;5.05;;
31674;SDS011;18276;45.520;11.018;2022-07-15T12:06:12;7.63;;;5.18;;
31674;SDS011;18276;45.520;11.018;2022-07-15T12:08:47;14.95;;;5.60;;
31674;SDS011;18276;45.520;11.018;2022-07-15T12:11:17;10.43;;;5.90;;
31674;SDS011;18276;45.520;11.018;2022-07-15T12:13:55;8.30;;;5.22;;
31674;SDS011;18276;45.520;11.018;2022-07-15T12:16:27;7.70;;;5.20;;
31674;SDS011;18276;45.520;11.018;2022-07-15T12:19:17;7.43;;;5.47;;
31674;SDS011;18276;45.520;11.018;2022-07-15T12:21:47;8.32;;;5.82;;
31674;SDS011;18276;45.520;11.018;2022-07-15T12:24:17;9.82;;;5.55;;
31674;SDS011;18276;45.520;11.018;2022-07-15T12:32:12;7.88;;;5.90;;
31674;SDS011;18276;45.520;11.018;2022-07-15T12:37:13;7.63;;;5.63;;
31674;SDS011;18276;45.520;11.018;2022-07-15T12:40:02;8.07;;;5.53;;
31674;SDS011;18276;45.520;11.018;2022-07-15T12:42:34;8.45;;;5.80;;
31674;SDS011;18276;45.520;11.018;2022-07-15T12:51:15;10.07;;;5.55;;
31674;SDS011;18276;45.520;11.018;2022-07-15T12:53:24;7.63;;;5.20;;
31674;SDS011;18276;45.520;11.018;2022-07-15T12:55:56;11.90;;;6.22;;
31674;SDS011;18276;45.520;11.018;2022-07-15T12:58:26;9.18;;;6.10;;
31674;SDS011;18276;45.520;11.018;2022-07-15T13:01:04;23.63;;;6.03;;
31674;SDS011;18276;45.520;11.018;2022-07-15T13:03:35;10.15;;;5.85;;
31674;SDS011;18276;45.520;11.018;2022-07-15T13:06:02;9.18;;;6.35;;
31674;SDS011;18276;45.520;11.018;2022-07-15T13:08:31;9.13;;;6.00;;
31674;SDS011;18276;45.520;11.018;2022-07-15T13:11:01;8.63;;;6.13;;
31674;SDS011;18276;45.520;11.018;2022-07-15T13:13:31;11.45;;;6.75;;
31674;SDS011;18276;45.520;11.018;2022-07-15T13:16:00;10.05;;;6.18;;
31674;SDS011;18276;45.520;11.018;2022-07-15T13:18:29;13.65;;;6.07;;
31674;SDS011;18276;45.520;11.018;2022-07-15T13:20:58;8.57;;;6.05;;
31674;SDS011;18276;45.520;11.018;2022-07-15T13:23:26;8.13;;;6.28;;
31674;SDS011;18276;45.520;11.018;2022-07-15T13:25:54;9.43;;;6.05;;
31674;SDS011;18276;45.520;11.018;2022-07-15T13:28:21;11.07;;;5.47;;
31674;SDS011;18276;45.520;11.018;2022-07-15T13:30:49;9.07;;;6.22;;
31674;SDS011;18276;45.520;11.018;2022-07-15T13:33:17;9.27;;;6.45;;
31674;SDS011;18276;45.520;11.018;2022-07-15T13:35:45;12.50;;;7.22;;
31674;SDS011;18276;45.520;11.018;2022-07-15T13:38:12;9.57;;;6.45;;
31674;SDS011;18276;45.520;11.018;2022-07-15T13:40:39;8.85;;;6.57;;
31674;SDS011;18276;45.520;11.018;2022-07-15T13:43:06;9.55;;;6.30;;
31674;SDS011;18276;45.520;11.018;2022-07-15T13:45:34;9.27;;;6.75;;
31674;SDS011;18276;45.520;11.018;2022-07-15T13:48:04;9.93;;;6.45;;
31674;SDS011;18276;45.520;11.018;2022-07-15T13:50:31;12.73;;;6.68;;
31674;SDS011;18276;45.520;11.018;2022-07-15T13:53:17;7.38;;;6.60;;
31674;SDS011;18276;45.520;11.018;2022-07-15T13:55:44;8.50;;;5.95;;
31674;SDS011;18276;45.520;11.018;2022-07-15T13:58:11;9.15;;;6.40;;
31674;SDS011;18276;45.520;11.018;2022-07-15T14:00:38;14.90;;;6.80;;
31674;SDS011;18276;45.520;11.018;2022-07-15T14:03:08;9.38;;;6.50;;
31674;SDS011;18276;45.520;11.018;2022-07-15T14:05:35;8.93;;;6.00;;
31674;SDS011;18276;45.520;11.018;2022-07-15T14:08:03;11.95;;;7.13;;
31674;SDS011;18276;45.520;11.018;2022-07-15T14:10:31;12.63;;;6.32;;
31674;SDS011;18276;45.520;11.018;2022-07-15T14:12:58;11.75;;;6.35;;
31674;SDS011;18276;45.520;11.018;2022-07-15T14:15:25;7.78;;;6.25;;
31674;SDS011;18276;45.520;11.018;2022-07-15T14:18:02;11.68;;;6.78;;
31674;SDS011;18276;45.520;11.018;2022-07-15T14:20:29;12.07;;;6.53;;
31674;SDS011;18276;45.520;11.018;2022-07-15T14:22:57;11.55;;;6.80;;
31674;SDS011;18276;45.520;11.018;2022-07-15T14:25:24;9.82;;;6.32;;
31674;SDS011;18276;45.520;11.018;2022-07-15T14:27:52;12.95;;;6.65;;
31674;SDS011;18276;45.520;11.018;2022-07-15T14:30:20;16.70;;;6.50;;
31674;SDS011;18276;45.520;11.018;2022-07-15T14:32:48;7.90;;;6.22;;
31674;SDS011;18276;45.520;11.018;2022-07-15T14:35:15;9.75;;;6.45;;
31674;SDS011;18276;45.520;11.018;2022-07-15T14:37:43;10.77;;;6.75;;
31674;SDS011;18276;45.520;11.018;2022-07-15T14:40:10;10.80;;;6.80;;
31674;SDS011;18276;45.520;11.018;2022-07-15T14:42:37;18.58;;;7.03;;
31674;SDS011;18276;45.520;11.018;2022-07-15T14:45:06;9.25;;;6.35;;
31674;SDS011;18276;45.520;11.018;2022-07-15T14:47:34;13.63;;;7.05;;
31674;SDS011;18276;45.520;11.018;2022-07-15T14:50:01;8.73;;;6.32;;
31674;SDS011;18276;45.520;11.018;2022-07-15T14:52:28;8.77;;;6.78;;
31674;SDS011;18276;45.520;11.018;2022-07-15T14:54:55;8.82;;;6.90;;
31674;SDS011;18276;45.520;11.018;2022-07-15T14:57:22;7.68;;;6.50;;
31674;SDS011;18276;45.520;11.018;2022-07-15T14:59:49;8.13;;;7.05;;
31674;SDS011;18276;45.520;11.018;2022-07-15T15:02:16;8.38;;;6.82;;
31674;SDS011;18276;45.520;11.018;2022-07-15T15:04:43;13.57;;;7.43;;
31674;SDS011;18276;45.520;11.018;2022-07-15T15:07:10;11.02;;;6.53;;
31674;SDS011;18276;45.520;11.018;2022-07-15T15:09:37;10.48;;;7.07;;
31674;SDS011;18276;45.520;11.018;2022-07-15T15:12:04;10.35;;;6.82;;
31674;SDS011;18276;45.520;11.018;2022-07-15T15:14:35;11.13;;;7.13;;
31674;SDS011;18276;45.520;11.018;2022-07-15T15:17:02;11.57;;;7.18;;
31674;SDS011;18276;45.520;11.018;2022-07-15T15:19:34;14.93;;;6.80;;
31674;SDS011;18276;45.520;11.018;2022-07-15T15:22:02;8.40;;;6.85;;
31674;SDS011;18276;45.520;11.018;2022-07-15T15:24:30;14.38;;;6.60;;
31674;SDS011;18276;45.520;11.018;2022-07-15T15:26:58;10.15;;;5.90;;
31674;SDS011;18276;45.520;11.018;2022-07-15T15:29:28;9.40;;;6.22;;
31674;SDS011;18276;45.520;11.018;2022-07-15T15:31:55;12.13;;;6.57;;
31674;SDS011;18276;45.520;11.018;2022-07-15T15:34:23;7.45;;;6.50;;
31674;SDS011;18276;45.520;11.018;2022-07-15T15:36:50;9.88;;;6.38;;
31674;SDS011;18276;45.520;11.018;2022-07-15T15:39:17;10.27;;;6.13;;
31674;SDS011;18276;45.520;11.018;2022-07-15T15:41:44;10.68;;;6.22;;
31674;SDS011;18276;45.520;11.018;2022-07-15T15:44:11;9.05;;;5.95;;
31674;SDS011;18276;45.520;11.018;2022-07-15T15:46:40;10.90;;;6.47;;
31674;SDS011;18276;45.520;11.018;2022-07-15T15:49:08;10.18;;;5.93;;